Terminal Aerodrome Forecast
Issued by NWS

Home | Current Version | Previous Version | Text Only | Print | Product List | Glossary On
Versions: 1 2 3 4 5 6 7 8 9 10 11 12 13 14 15 16 17 18 19 20 21 22 23 24 25 26 27
438
FTUS43 KLOT 240155 AAB
TAFORD
TAF AMD
KORD 240155Z 2402/2506 16013KT P6SM SCT045 OVC060
     FM240500 19012KT P6SM FEW045 BKN120 WS015/21050KT
     FM241400 21016G24KT P6SM BKN250
     FM241700 21020G30KT P6SM FEW035 SCT250
     FM242200 20013G21KT P6SM BKN040
     FM250400 06007KT 6SM BR VCSH SCT008 BKN035=

USA.gov is the U.S. government's official web portal to all federal, state and local government web resources and services.